<?xml version="1.0" encoding="utf-8"?>
<gpx xmlns:xsi="http://www.w3.org/2001/XMLSchema-instance" xmlns:xsd="http://www.w3.org/2001/XMLSchema" version="1.1" creator="Shapelink.com" xmlns="http://www.topografix.com/GPX/1/1" xmlns:gpxtpx="http://www.garmin.com/xmlschemas/TrackPointExtension/v1">
  <metadata>
    <name>Övrigt 1.75 km, 2019-01-27</name>
    <desc></desc>
    <author><name>Marian Moron</name></author> 
    <time>2019-01-27T11:23:55Z</time>
  </metadata>
  <trk>
    <name>Övrigt 1.75 km, 2019-01-27</name>
    <trkseg>
      <trkpt lat="51.209873346942" lon="4.405930228485">
        <ele>16</ele>
        <time>2019-01-27T11:23:55Z</time>
      </trkpt>
      <trkpt lat="51.209854487667" lon="4.405941376412">
        <ele>14.2</ele>
        <time>2019-01-27T11:24:18Z</time>
      </trkpt>
      <trkpt lat="51.209866389965" lon="4.40589628179">
        <ele>16.6</ele>
        <time>2019-01-27T11:24:47Z</time>
      </trkpt>
      <trkpt lat="51.209880387738" lon="4.405907597355">
        <ele>16.6</ele>
        <time>2019-01-27T11:24:49Z</time>
      </trkpt>
      <trkpt lat="51.209901258669" lon="4.4059205893">
        <ele>16.6</ele>
        <time>2019-01-27T11:24:51Z</time>
      </trkpt>
      <trkpt lat="51.209915926994" lon="4.405954284538">
        <ele>16.8</ele>
        <time>2019-01-27T11:24:53Z</time>
      </trkpt>
      <trkpt lat="51.209962278901" lon="4.406123766556">
        <ele>15.2</ele>
        <time>2019-01-27T11:25:03Z</time>
      </trkpt>
      <trkpt lat="51.209997734338" lon="4.406188893919">
        <ele>15</ele>
        <time>2019-01-27T11:25:07Z</time>
      </trkpt>
      <trkpt lat="51.210152548031" lon="4.406510172146">
        <ele>14.8</ele>
        <time>2019-01-27T11:25:24Z</time>
      </trkpt>
      <trkpt lat="51.210210718417" lon="4.406635900646">
        <ele>17.2</ele>
        <time>2019-01-27T11:25:30Z</time>
      </trkpt>
      <trkpt lat="51.210245754759" lon="4.406692729928">
        <ele>18.8</ele>
        <time>2019-01-27T11:25:34Z</time>
      </trkpt>
      <trkpt lat="51.210557142344" lon="4.407139233741">
        <ele>35.4</ele>
        <time>2019-01-27T11:26:19Z</time>
      </trkpt>
      <trkpt lat="51.211021583423" lon="4.407269739924">
        <ele>22.8</ele>
        <time>2019-01-27T11:26:53Z</time>
      </trkpt>
      <trkpt lat="51.211291229146" lon="4.407424721255">
        <ele>9.2</ele>
        <time>2019-01-27T11:27:12Z</time>
      </trkpt>
      <trkpt lat="51.211305394557" lon="4.407564615166">
        <ele>6.8</ele>
        <time>2019-01-27T11:28:50Z</time>
      </trkpt>
      <trkpt lat="51.211499770818" lon="4.407606524666">
        <ele>4.4</ele>
        <time>2019-01-27T11:29:09Z</time>
      </trkpt>
      <trkpt lat="51.211847787306" lon="4.408089657382">
        <ele>0</ele>
        <time>2019-01-27T11:29:48Z</time>
      </trkpt>
      <trkpt lat="51.212062112489" lon="4.408347736083">
        <ele>0</ele>
        <time>2019-01-27T11:30:08Z</time>
      </trkpt>
      <trkpt lat="51.212295213128" lon="4.408732968207">
        <ele>13.6</ele>
        <time>2019-01-27T11:31:07Z</time>
      </trkpt>
      <trkpt lat="51.212753032506" lon="4.409033710779">
        <ele>14.6</ele>
        <time>2019-01-27T11:31:46Z</time>
      </trkpt>
      <trkpt lat="51.213185454727" lon="4.409103532006">
        <ele>13</ele>
        <time>2019-01-27T11:32:23Z</time>
      </trkpt>
      <trkpt lat="51.213639166974" lon="4.409162372944">
        <ele>24.2</ele>
        <time>2019-01-27T11:32:58Z</time>
      </trkpt>
      <trkpt lat="51.213846032266" lon="4.40909816759">
        <ele>23.6</ele>
        <time>2019-01-27T11:33:10Z</time>
      </trkpt>
      <trkpt lat="51.214255655719" lon="4.409156924709">
        <ele>22.4</ele>
        <time>2019-01-27T11:33:42Z</time>
      </trkpt>
      <trkpt lat="51.214323884385" lon="4.409455404168">
        <ele>3.2</ele>
        <time>2019-01-27T11:34:15Z</time>
      </trkpt>
      <trkpt lat="51.214379707839" lon="4.409375943756">
        <ele>3.8</ele>
        <time>2019-01-27T11:34:41Z</time>
      </trkpt>
      <trkpt lat="51.214338804167" lon="4.409374602652">
        <ele>0.8</ele>
        <time>2019-01-27T11:35:10Z</time>
      </trkpt>
      <trkpt lat="51.214410134136" lon="4.409435622884">
        <ele>3.6</ele>
        <time>2019-01-27T11:35:33Z</time>
      </trkpt>
      <trkpt lat="51.214440728071" lon="4.409387259321">
        <ele>4.2</ele>
        <time>2019-01-27T11:35:44Z</time>
      </trkpt>
      <trkpt lat="51.214442739727" lon="4.409357755033">
        <ele>4.2</ele>
        <time>2019-01-27T11:36:24Z</time>
      </trkpt>
      <trkpt lat="51.214451121627" lon="4.409346439468">
        <ele>5.6</ele>
        <time>2019-01-27T11:36:28Z</time>
      </trkpt>
      <trkpt lat="51.214546172373" lon="4.409255328215">
        <ele>9.2</ele>
        <time>2019-01-27T11:36:46Z</time>
      </trkpt>
      <trkpt lat="51.214616664152" lon="4.409276785879">
        <ele>9.2</ele>
        <time>2019-01-27T11:39:49Z</time>
      </trkpt>
      <trkpt lat="51.214625716604" lon="4.409200259132">
        <ele>8.2</ele>
        <time>2019-01-27T11:40:06Z</time>
      </trkpt>
      <trkpt lat="51.21464784482" lon="4.409203360435">
        <ele>4.6</ele>
        <time>2019-01-27T11:45:35Z</time>
      </trkpt>
      <trkpt lat="51.214624794595" lon="4.409163127315">
        <ele>16.2</ele>
        <time>2019-01-27T11:46:32Z</time>
      </trkpt>
      <trkpt lat="51.21463946292" lon="4.409161786211">
        <ele>19</ele>
        <time>2019-01-27T11:46:49Z</time>
      </trkpt>
      <trkpt lat="51.214662764602" lon="4.409270415635">
        <ele>24.4</ele>
        <time>2019-01-27T11:47:16Z</time>
      </trkpt>
      <trkpt lat="51.214626135699" lon="4.409229847239">
        <ele>28.6</ele>
        <time>2019-01-27T11:47:42Z</time>
      </trkpt>
      <trkpt lat="51.214642899499" lon="4.409273516938">
        <ele>24.8</ele>
        <time>2019-01-27T11:49:09Z</time>
      </trkpt>
      <trkpt lat="51.214613981944" lon="4.409262536649">
        <ele>20.8</ele>
        <time>2019-01-27T11:49:23Z</time>
      </trkpt>
      <trkpt lat="51.214658406014" lon="4.409156170338">
        <ele>19</ele>
        <time>2019-01-27T11:52:48Z</time>
      </trkpt>
      <trkpt lat="51.214705093197" lon="4.40917109012">
        <ele>12.4</ele>
        <time>2019-01-27T11:53:31Z</time>
      </trkpt>
      <trkpt lat="51.21479536626" lon="4.409248622695">
        <ele>12.6</ele>
        <time>2019-01-27T11:53:42Z</time>
      </trkpt>
      <trkpt lat="51.214704506464" lon="4.409960581281">
        <ele>2.4</ele>
        <time>2019-01-27T11:54:14Z</time>
      </trkpt>
      <trkpt lat="51.214769130913" lon="4.410237016343">
        <ele>3.2</ele>
        <time>2019-01-27T11:54:40Z</time>
      </trkpt>
      <trkpt lat="51.214762006298" lon="4.410257971093">
        <ele>4.6</ele>
        <time>2019-01-27T11:54:51Z</time>
      </trkpt>
      <trkpt lat="51.214756725701" lon="4.410203237286">
        <ele>12.6</ele>
        <time>2019-01-27T11:55:17Z</time>
      </trkpt>
      <trkpt lat="51.214590931719" lon="4.410223521484">
        <ele>24.8</ele>
        <time>2019-01-27T11:56:09Z</time>
      </trkpt>
      <trkpt lat="51.214788996016" lon="4.410266436812">
        <ele>5.2</ele>
        <time>2019-01-27T11:57:07Z</time>
      </trkpt>
      <trkpt lat="51.214617250885" lon="4.41022637133">
        <ele>23.2</ele>
        <time>2019-01-27T11:58:58Z</time>
      </trkpt>
      <trkpt lat="51.214552794074" lon="4.410258390188">
        <ele>21.8</ele>
        <time>2019-01-27T11:59:07Z</time>
      </trkpt>
      <trkpt lat="51.214644575879" lon="4.40960946349">
        <ele>4.6</ele>
        <time>2019-01-27T11:59:43Z</time>
      </trkpt>
      <trkpt lat="51.214666620276" lon="4.409343002889">
        <ele>2</ele>
        <time>2019-01-27T11:59:55Z</time>
      </trkpt>
      <trkpt lat="51.214522451596" lon="4.409334704808">
        <ele>0</ele>
        <time>2019-01-27T12:00:13Z</time>
      </trkpt>
      <trkpt lat="51.214436369483" lon="4.409378039231">
        <ele>0</ele>
        <time>2019-01-27T12:00:28Z</time>
      </trkpt>
      <trkpt lat="51.214469729445" lon="4.409378542145">
        <ele>7.2</ele>
        <time>2019-01-27T12:01:15Z</time>
      </trkpt>
      <trkpt lat="51.214422539348" lon="4.409347361477">
        <ele>8.6</ele>
        <time>2019-01-27T12:02:15Z</time>
      </trkpt>
      <trkpt lat="51.214428071402" lon="4.409386085855">
        <ele>3.4</ele>
        <time>2019-01-27T12:05:29Z</time>
      </trkpt>
      <trkpt lat="51.214370990663" lon="4.40938482857">
        <ele>4.8</ele>
        <time>2019-01-27T12:05:42Z</time>
      </trkpt>
      <trkpt lat="51.2144232099" lon="4.409258094242">
        <ele>26.8</ele>
        <time>2019-01-27T12:09:31Z</time>
      </trkpt>
      <trkpt lat="51.214292536079" lon="4.409291202747">
        <ele>15.8</ele>
        <time>2019-01-27T12:09:51Z</time>
      </trkpt>
      <trkpt lat="51.213828681733" lon="4.409226578298">
        <ele>23</ele>
        <time>2019-01-27T12:10:23Z</time>
      </trkpt>
      <trkpt lat="51.213375723857" lon="4.409124822032">
        <ele>8</ele>
        <time>2019-01-27T12:10:55Z</time>
      </trkpt>
      <trkpt lat="51.212877336083" lon="4.409217442027">
        <ele>16</ele>
        <time>2019-01-27T12:11:31Z</time>
      </trkpt>
      <trkpt lat="51.212654880457" lon="4.409332944609">
        <ele>29.2</ele>
        <time>2019-01-27T12:11:53Z</time>
      </trkpt>
      <trkpt lat="51.212245927556" lon="4.409151057379">
        <ele>38.6</ele>
        <time>2019-01-27T12:12:22Z</time>
      </trkpt>
      <trkpt lat="51.212220111304" lon="4.409062293058">
        <ele>38.6</ele>
        <time>2019-01-27T12:12:26Z</time>
      </trkpt>
      <trkpt lat="51.212113074441" lon="4.408774542431">
        <ele>20.4</ele>
        <time>2019-01-27T12:12:47Z</time>
      </trkpt>
      <trkpt lat="51.212009474157" lon="4.40860615006">
        <ele>12.2</ele>
        <time>2019-01-27T12:12:58Z</time>
      </trkpt>
      <trkpt lat="51.211545200716" lon="4.40845024672">
        <ele>37.6</ele>
        <time>2019-01-27T12:13:34Z</time>
      </trkpt>
      <trkpt lat="51.211357865251" lon="4.407922522296">
        <ele>37.6</ele>
        <time>2019-01-27T12:14:02Z</time>
      </trkpt>
      <trkpt lat="51.211377562716" lon="4.407898633881">
        <ele>34.2</ele>
        <time>2019-01-27T12:14:11Z</time>
      </trkpt>
      <trkpt lat="51.211338586881" lon="4.407813054682">
        <ele>32.6</ele>
        <time>2019-01-27T12:14:17Z</time>
      </trkpt>
      <trkpt lat="51.211078915619" lon="4.407674334237">
        <ele>29</ele>
        <time>2019-01-27T12:14:39Z</time>
      </trkpt>
      <trkpt lat="51.211122752956" lon="4.40776209273">
        <ele>28.4</ele>
        <time>2019-01-27T12:15:11Z</time>
      </trkpt>
      <trkpt lat="51.211054189014" lon="4.407695456625">
        <ele>20</ele>
        <time>2019-01-27T12:15:18Z</time>
      </trkpt>
      <trkpt lat="51.210905913203" lon="4.407635442221">
        <ele>10.8</ele>
        <time>2019-01-27T12:15:30Z</time>
      </trkpt>
      <trkpt lat="51.210858723106" lon="4.407642650655">
        <ele>9.4</ele>
        <time>2019-01-27T12:15:34Z</time>
      </trkpt>
      <trkpt lat="51.210497379397" lon="4.407324473731">
        <ele>21</ele>
        <time>2019-01-27T12:16:10Z</time>
      </trkpt>
      <trkpt lat="51.210217843032" lon="4.406695495955">
        <ele>34</ele>
        <time>2019-01-27T12:16:42Z</time>
      </trkpt>
      <trkpt lat="51.210011648292" lon="4.40649474945">
        <ele>14.2</ele>
        <time>2019-01-27T12:16:56Z</time>
      </trkpt>
      <trkpt lat="51.210009468998" lon="4.406020585367">
        <ele>31.8</ele>
        <time>2019-01-27T12:19:28Z</time>
      </trkpt>
    </trkseg>
  </trk>
</gpx>